Toledo Express Airport
KTOL : now visible

Airfield :











YOU CAN JOIN US ON...

 
LOGIN :

Register | Disclaimer

   EN    FR    IT 

 









Legend :    VFR   Marginal VFR   IFR   Intensive IFR   Very Intensive IFR
Visi :
Ceiling :
>= 8 km
>= 3000ft
5 to 8 km
1000 to 3000 ft
1500m to 5 km
500 to 1000 ft
800 to 1500m
200 to 500 ft
< 800m
< 200 ft
Symbols :   Thunderstorms  Fog  Heavy snow  Heavy precipitations  Wind > 20 kt






- Airport Elevation : 683 ft
- IATA code : TOL


KTOL - Toledo Express

CURRENT METAR :
  • 250752Z 21005KT 8SM OVC006 03/02 A2982 RMK AO2 SLP102 T00330017 $

EXPIRED METARs :
  • 250652Z 21007KT 8SM OVC005 04/02 A2981 RMK AO2 SLP098 T00390022 $
  • 250628Z 22008KT 9SM OVC006 04/02 A2981 RMK AO2 T00440022 $

TAF KTOL
Valid from the 25 at 06:00 until the 26 at 06:00 UTC


250520Z 2506/2606 19005KT 3SM BR OVC008
TEMPO 2506/2510 1SM -SNRA BR OVC003
FM251000 20004KT 3SM BR OVC003
TEMPO 2510/2514 1SM -SNRA BR OVC001
FM251800 22010KT 4SM -SN BR OVC008
FM252200 22008KT 3SM BR OVC003
FM260500 25010KT 6SM BR OVC010



MET'MAP, your aeronautical weather chart ! - Copyright ORBIFLY December 2007 - Disclaimer

ORBIFLY MET'MAP TEAM :

Programming & Development : Alexandra Zaïnal
Concept & original design : Baudouin d'Aumeries
Assistance for programming : Marc-Olivier Méhu
Technical & hardware support : Manuel Goepfert

Contact : metmap@orbifly.com




SOURCES & CREDITS :

   NOAA       Earth
Advisory